createdAt,value
2023-02-21T00:00:00.319Z,100008.72
2023-02-21T00:05:22.250Z,100034.56
2023-02-21T00:10:44.361Z,100019.09
2023-02-21T00:16:05.843Z,100019.19
2023-02-21T00:21:27.481Z,100014.81
2023-02-21T00:26:49.114Z,100016.59
2023-02-21T00:32:11.415Z,100012.19
2023-02-21T00:37:33.022Z,100013.81
2023-02-21T00:42:54.695Z,100007.63
2023-02-21T00:48:16.224Z,100018.78
2023-02-21T00:53:37.681Z,100020.50
2023-02-21T00:58:59.280Z,100002.31
2023-02-21T01:04:20.891Z,100011.84
2023-02-21T01:09:42.374Z,100046.28
2023-02-21T01:15:03.590Z,100035.03
2023-02-21T01:20:25.878Z,100029.88
2023-02-21T01:25:47.483Z,100035.84
2023-02-21T01:31:09.084Z,100038.38
2023-02-21T01:36:30.599Z,100028.03
2023-02-21T01:41:54.717Z,100008.16
2023-02-21T01:47:18.288Z,100012.56
2023-02-21T01:52:39.900Z,100028.81
2023-02-21T01:58:04.666Z,100034.84
2023-02-21T02:03:29.972Z,100041.69
2023-02-21T02:08:53.334Z,100023.66
2023-02-21T02:14:21.405Z,100046.00
2023-02-21T02:20:13.400Z,100039.06
2023-02-21T02:26:00.952Z,100037.41
2023-02-21T02:31:08.194Z,100022.75
2023-02-21T02:36:15.558Z,100015.09
2023-02-21T02:41:44.960Z,100023.72
2023-02-21T02:46:51.193Z,100016.06
2023-02-21T02:51:56.201Z,100004.78
2023-02-21T02:57:10.833Z,100002.19
2023-02-21T03:02:43.460Z,99982.41
2023-02-21T03:08:03.730Z,99975.50
2023-02-21T03:13:25.174Z,99964.22
2023-02-21T03:18:40.832Z,99965.16
2023-02-21T03:23:47.007Z,99963.34
2023-02-21T03:28:51.000Z,99950.41
2023-02-21T03:33:56.899Z,99942.56
2023-02-21T03:38:59.998Z,99944.19
2023-02-21T03:44:03.787Z,99929.44
2023-02-21T03:49:06.895Z,99915.53
2023-02-21T03:54:10.874Z,99916.47
2023-02-21T03:59:19.269Z,99930.28
2023-02-21T04:04:23.446Z,99897.53
2023-02-21T04:09:34.972Z,99898.44
2023-02-21T04:14:38.351Z,99900.97
2023-02-21T04:19:41.429Z,99871.56
2023-02-21T04:24:45.120Z,99884.69
2023-02-21T04:29:51.511Z,99863.03
2023-02-21T04:34:54.978Z,99870.97
2023-02-21T04:39:58.259Z,99889.75
2023-02-21T04:45:01.494Z,99863.88
2023-02-21T04:50:06.797Z,99879.59
2023-02-21T04:55:09.929Z,99870.56
2023-02-21T05:00:13.870Z,99860.81
2023-02-21T05:05:16.985Z,99847.50
2023-02-21T05:10:20.228Z,99849.31
2023-02-21T05:15:23.324Z,99849.53
2023-02-21T05:20:26.556Z,99815.31
2023-02-21T05:25:29.552Z,99829.03
2023-02-21T05:30:32.779Z,99811.06
2023-02-21T05:35:35.891Z,99808.16
2023-02-21T05:40:38.982Z,99793.06
2023-02-21T05:45:42.392Z,99773.59
2023-02-21T05:50:45.898Z,99771.44
2023-02-21T05:55:48.907Z,99767.19
2023-02-21T06:00:52.236Z,99752.34
2023-02-21T06:05:55.276Z,99723.28
2023-02-21T06:10:58.441Z,99727.16
2023-02-21T06:16:01.580Z,99719.09
2023-02-21T06:21:04.803Z,99713.72
2023-02-21T06:26:07.777Z,99729.38
2023-02-21T06:31:11.003Z,99725.25
2023-02-21T06:36:17.834Z,99707.94
2023-02-21T06:41:26.467Z,99700.19
2023-02-21T06:46:31.197Z,99688.31
2023-02-21T06:51:39.701Z,99670.72
2023-02-21T06:56:42.974Z,99669.78
2023-02-21T07:01:46.088Z,99646.13
2023-02-21T07:06:49.246Z,99631.72
2023-02-21T07:11:52.675Z,99631.94
2023-02-21T07:16:55.796Z,99620.88
2023-02-21T07:21:58.838Z,99611.16
2023-02-21T07:27:02.170Z,99596.34
2023-02-21T07:32:05.470Z,99578.88
2023-02-21T07:37:09.190Z,99562.38
2023-02-21T07:42:13.592Z,99571.69
2023-02-21T07:47:21.565Z,99553.22
2023-02-21T07:52:24.701Z,99530.03
2023-02-21T07:57:28.024Z,99515.88
2023-02-21T08:02:32.036Z,99491.75
2023-02-21T08:07:35.155Z,99447.94
2023-02-21T08:12:38.388Z,99443.03
2023-02-21T08:17:41.453Z,99399.44
2023-02-21T08:22:44.932Z,99394.16
2023-02-21T08:27:53.823Z,99367.16
2023-02-21T08:32:56.880Z,99343.22
2023-02-21T08:38:03.477Z,99321.09
2023-02-21T08:43:06.759Z,99273.91
2023-02-21T08:48:09.882Z,99273.41
2023-02-21T08:53:15.568Z,99235.69
2023-02-21T08:58:18.788Z,99235.41
2023-02-21T09:03:21.781Z,99205.81
2023-02-21T09:08:27.009Z,99186.28
2023-02-21T09:13:33.094Z,99177.91
2023-02-21T09:18:36.231Z,99148.09
2023-02-21T09:23:39.349Z,99125.25
2023-02-21T09:28:44.096Z,99119.25
2023-02-21T09:33:47.346Z,99093.03
2023-02-21T09:38:51.935Z,99083.34
2023-02-21T09:43:55.492Z,99058.94
2023-02-21T09:48:59.374Z,99022.47
2023-02-21T09:54:04.465Z,99016.81
2023-02-21T09:59:12.575Z,98976.66
2023-02-21T10:04:27.849Z,98987.00
2023-02-21T10:10:00.233Z,98966.75
2023-02-21T10:15:34.952Z,98926.16
2023-02-21T10:20:41.982Z,98922.28
2023-02-21T10:25:46.716Z,98882.75
2023-02-21T10:30:55.322Z,98878.03
2023-02-21T10:35:58.366Z,98872.06
2023-02-21T10:41:05.252Z,98864.53
2023-02-21T10:46:24.323Z,98815.88
2023-02-21T10:51:33.500Z,98806.09
2023-02-21T10:56:39.296Z,98811.22
2023-02-21T11:01:45.402Z,98790.09
2023-02-21T11:07:09.155Z,98790.44
2023-02-21T11:12:32.388Z,98753.81
2023-02-21T11:17:35.574Z,98751.22
2023-02-21T11:22:45.254Z,98748.50
2023-02-21T11:28:05.442Z,98743.81
2023-02-21T11:33:09.484Z,98717.16
2023-02-21T11:38:38.384Z,98720.03
2023-02-21T11:43:48.068Z,98698.94
2023-02-21T11:49:03.017Z,98704.56
2023-02-21T11:54:06.922Z,98678.50
2023-02-21T11:59:23.375Z,98696.59
2023-02-21T12:04:40.767Z,98692.69
2023-02-21T12:10:18.839Z,98690.28
2023-02-21T12:15:29.996Z,98690.72
2023-02-21T12:20:45.718Z,98704.44
2023-02-21T12:26:00.467Z,98710.75
2023-02-21T12:31:22.003Z,98699.91
2023-02-21T12:36:46.871Z,98693.75
2023-02-21T12:42:21.819Z,98700.22
2023-02-21T12:47:32.891Z,98682.38
2023-02-21T12:53:05.852Z,98695.34
2023-02-21T12:58:37.433Z,98676.75
2023-02-21T13:03:54.545Z,98683.88
2023-02-21T13:09:06.753Z,98680.88
2023-02-21T13:14:14.965Z,98661.72
2023-02-21T13:19:18.135Z,98660.09
2023-02-21T13:25:22.338Z,98659.84
2023-02-21T13:30:49.459Z,98636.50
2023-02-21T13:35:52.986Z,98658.66
2023-02-21T13:41:10.255Z,98645.75
2023-02-21T13:46:32.295Z,98633.63
2023-02-21T13:51:53.431Z,98629.44
2023-02-21T13:56:56.615Z,98637.66
2023-02-21T14:02:37.407Z,98623.31
2023-02-21T14:07:47.123Z,98618.75
2023-02-21T14:13:00.426Z,98607.91
2023-02-21T14:18:03.472Z,98614.91
2023-02-21T14:23:06.884Z,98624.22
2023-02-21T14:28:46.913Z,98623.84
2023-02-21T14:33:50.769Z,98624.91
2023-02-21T14:38:54.622Z,98625.06
2023-02-21T14:44:13.131Z,98625.81
2023-02-21T14:50:03.656Z,98625.25
2023-02-21T14:55:32.078Z,98616.09
2023-02-21T15:00:37.944Z,98638.75
2023-02-21T15:06:07.636Z,98638.41
2023-02-21T15:11:20.393Z,98647.03
2023-02-21T15:16:23.404Z,98644.41
2023-02-21T15:21:26.624Z,98642.56
2023-02-21T15:26:31.952Z,98636.78
2023-02-21T15:31:40.252Z,98659.16
2023-02-21T15:36:43.457Z,98667.66
2023-02-21T15:41:50.459Z,98683.09
2023-02-21T15:46:53.282Z,98669.41
2023-02-21T15:51:56.648Z,98674.38
2023-02-21T15:57:28.849Z,98683.84
2023-02-21T16:02:32.502Z,98674.09
2023-02-21T16:07:40.487Z,98675.19
2023-02-21T16:12:45.190Z,98673.00
2023-02-21T16:17:54.838Z,98674.47
2023-02-21T16:23:16.736Z,98696.28
2023-02-21T16:28:19.746Z,98666.50
2023-02-21T16:33:22.943Z,98672.13
2023-02-21T16:38:27.612Z,98674.16
2023-02-21T16:43:30.700Z,98673.00
2023-02-21T16:48:34.156Z,98705.41
2023-02-21T16:53:37.268Z,98690.69
2023-02-21T16:58:44.168Z,98666.34
2023-02-21T17:03:47.079Z,98687.47
2023-02-21T17:08:50.409Z,98630.72
2023-02-21T17:13:53.456Z,98683.31
2023-02-21T17:18:56.441Z,98692.50
2023-02-21T17:23:59.475Z,98688.44
2023-02-21T17:29:02.873Z,98679.84
2023-02-21T17:34:05.904Z,98693.53
2023-02-21T17:39:08.997Z,98694.41
2023-02-21T17:44:12.015Z,98679.78
2023-02-21T17:49:17.859Z,98702.31
2023-02-21T17:54:23.830Z,98683.63
2023-02-21T17:59:26.795Z,98677.56
2023-02-21T18:04:30.267Z,98706.19
2023-02-21T18:09:33.760Z,98691.22
2023-02-21T18:14:36.770Z,98714.56
2023-02-21T18:19:39.832Z,98703.13
2023-02-21T18:24:42.909Z,98705.28
2023-02-21T18:29:45.987Z,98687.41
2023-02-21T18:34:49.149Z,98702.94
2023-02-21T18:39:53.711Z,98708.53
2023-02-21T18:44:58.166Z,98690.28
2023-02-21T18:50:02.521Z,98694.94
2023-02-21T18:55:06.964Z,98716.78
2023-02-21T19:00:12.020Z,98707.31
2023-02-21T19:05:22.070Z,98704.06
2023-02-21T19:10:26.410Z,98696.34
2023-02-21T19:15:33.026Z,98688.44
2023-02-21T19:20:37.133Z,98685.69
2023-02-21T19:25:40.238Z,98686.00
2023-02-21T19:30:43.613Z,98686.00
2023-02-21T19:35:46.663Z,98689.34
2023-02-21T19:40:49.851Z,98686.75
2023-02-21T19:45:53.108Z,98692.56
2023-02-21T19:50:56.610Z,98680.28
2023-02-21T19:55:59.702Z,98701.50
2023-02-21T20:01:02.716Z,98680.28
2023-02-21T20:06:06.143Z,98692.63
2023-02-21T20:11:10.887Z,98687.28
2023-02-21T20:16:19.705Z,98693.22
2023-02-21T20:21:25.587Z,98695.50
2023-02-21T20:26:29.365Z,98692.00
2023-02-21T20:31:33.951Z,98677.34
2023-02-21T20:36:40.390Z,98693.78
2023-02-21T20:41:43.376Z,98662.00
2023-02-21T20:46:46.609Z,98676.75
2023-02-21T20:51:49.797Z,98661.97
2023-02-21T20:56:56.949Z,98672.22
2023-02-21T21:02:01.651Z,98698.38
2023-02-21T21:07:12.945Z,98684.03
2023-02-21T21:12:19.022Z,98682.22
2023-02-21T21:17:22.321Z,98711.31
2023-02-21T21:22:28.178Z,98706.59
2023-02-21T21:27:31.292Z,98714.16
2023-02-21T21:32:34.880Z,98704.66
2023-02-21T21:37:38.741Z,98722.13
2023-02-21T21:42:42.370Z,98722.25
2023-02-21T21:47:50.061Z,98732.69
2023-02-21T21:52:58.921Z,98717.81
2023-02-21T21:58:02.160Z,98733.47
2023-02-21T22:03:05.188Z,98729.47
2023-02-21T22:08:08.373Z,98755.63
2023-02-21T22:13:15.389Z,98752.47
2023-02-21T22:18:19.903Z,98755.31
2023-02-21T22:23:24.507Z,98795.13
2023-02-21T22:28:27.666Z,98774.63
2023-02-21T22:33:30.654Z,98814.47
2023-02-21T22:38:33.855Z,98832.22
2023-02-21T22:43:37.677Z,98827.50
2023-02-21T22:48:40.651Z,98844.38
2023-02-21T22:53:50.382Z,98848.03
2023-02-21T22:58:57.460Z,98860.25
2023-02-21T23:04:11.028Z,98885.78
2023-02-21T23:09:14.599Z,98898.50
2023-02-21T23:14:19.752Z,98909.63
2023-02-21T23:19:23.553Z,98906.13
2023-02-21T23:24:28.481Z,98925.22
2023-02-21T23:29:31.551Z,98940.63
2023-02-21T23:34:40.982Z,98921.84
2023-02-21T23:39:46.969Z,98968.69
2023-02-21T23:44:51.090Z,98961.53
2023-02-21T23:49:58.280Z,98964.06
2023-02-21T23:55:01.198Z,98981.06
